Flight Track Log - Related Links

Times and Time Zones

All times are in EDT time to prevent confusion due to time zone crossing. See the N20AZ flight status page for this flight to view local times or setup timezone preferences in your user account.

Time Position Orientation Groundspeed Altitude Reporting Facility
EDT Latitude Longitude Course Direction KTS MPH feet Rate Location/Type
Fri 09:56:35 AM 29.9819 -81.3769 306° West 115 132 1,200  Level Jacksonville Center
Fri 09:57:05 AM 29.9925 -81.3936 306° West 122 140 1,400 495 Climbing Jacksonville Center
Fri 09:58:12 AM 30.0181 -81.4269 312° West 123 142 2,000 516 Climbing Jacksonville Center
Fri 09:59:13 AM 30.0475 -81.4528 323° Northwest 130 150 2,500 492 Climbing Jacksonville Center
Fri 10:00:14 AM 30.0769 -81.4667 338° Northwest 130 150 3,000 537 Climbing Jacksonville Center
Fri 10:01:16 AM 30.1083 -81.4881 329° Northwest 126 145 3,600 513 Climbing Jacksonville Center
Fri 10:02:11 AM 30.1378 -81.5092 328° Northwest 134 154 4,000 492 Climbing Jacksonville Center
Fri 10:03:18 AM 30.1736 -81.5303 333° Northwest 129 148 4,600 512 Climbing Jacksonville Center
Fri 10:04:20 AM 30.2072 -81.5514 332° Northwest 136 157 5,100 488 Climbing Jacksonville Center
Fri 10:05:21 AM 30.2389 -81.5725 330° Northwest 131 151 5,600 541 Climbing Jacksonville Center
Fri 10:06:22 AM 30.2703 -81.5914 333° Northwest 132 152 6,200 541 Climbing Jacksonville Center
Fri 10:07:23 AM 30.3039 -81.6150 329° Northwest 129 148 6,700 390 Climbing Jacksonville Center
Fri 10:08:25 AM 30.3356 -81.6339 333° Northwest 128 147 7,000 146 Climbing Jacksonville Center
Fri 10:09:26 AM 30.3711 -81.6575 330° Northwest 144 166 7,000 49 Level Jacksonville Center
Fri 10:10:27 AM 30.4069 -81.6811 330° Northwest 145 167 7,100  Climbing Jacksonville Center
Fri 10:11:29 AM 30.4425 -81.7047 330° Northwest 149 171 7,000 -49 Descending Jacksonville Center
Fri 10:12:30 AM 30.4806 -81.7283 332° Northwest 156 180 7,000  Level Jacksonville Center
Fri 10:13:37 AM 30.5225 -81.7567 330° Northwest 148 170 7,000  Level Jacksonville Center
Fri 10:14:33 AM 30.5561 -81.7781 331° Northwest 151 174 7,000  Level Jacksonville Center
Fri 10:15:40 AM 30.5981 -81.8042 332° Northwest 151 174 7,000  Level Jacksonville Center
Fri 10:16:35 AM 30.6294 -81.8256 330° Northwest 151 174 7,000  Level Jacksonville Center
Fri 10:17:37 AM 30.6714 -81.8517 332° Northwest 155 178 7,000  Level Jacksonville Center
Fri 10:18:38 AM 30.7072 -81.8753 330° Northwest 152 175 7,000  Level Jacksonville Center
Fri 10:20:27 AM 30.7722 -81.9206 329° Northwest 160 184 7,000  Level Jacksonville Center
Fri 10:21:27 AM 30.8100 -81.9419 334° Northwest 160 184 7,000  Level Jacksonville Center
Fri 10:22:27 AM 30.8478 -81.9683 329° Northwest 160 184 7,000  Level Jacksonville Center
Fri 10:23:27 AM 30.8833 -81.9897 333° Northwest 160 184 7,000  Level Jacksonville Center
Fri 10:24:27 AM 30.9192 -82.0161 328° Northwest 160 184 7,000  Level Jacksonville Center
Fri 10:25:27 AM 30.9569 -82.0397 332° Northwest 160 184 7,000  Level Jacksonville Center
Fri 10:26:27 AM 30.9947 -82.0636 332° Northwest 155 178 7,000  Level Jacksonville Center
Fri 10:27:27 AM 31.0303 -82.0878 330° Northwest 155 178 7,000  Level Jacksonville Center
Fri 10:28:27 AM 31.0681 -82.1117 332° Northwest 155 178 7,000 -100 Level Jacksonville Center
Fri 10:29:27 AM 31.1017 -82.1381 326° Northwest 150 173 6,800 -300 Descending Jacksonville Center
Fri 10:30:27 AM 31.1433 -82.1619 334° Northwest 150 173 6,400 -400 Descending Jacksonville Center
Fri 10:31:27 AM 31.1833 -82.1908 328° Northwest 156 180 6,000 -150 Descending Jacksonville Center
Fri 10:32:27 AM 31.2231 -82.2147 333° Northwest 162 186 6,100  Climbing Jacksonville Center
Fri 10:33:27 AM 31.2650 -82.2411 332° Northwest 162 186 6,000 -50 Descending Jacksonville Center
Fri 10:34:27 AM 31.3006 -82.2678 327° Northwest 162 186 6,000  Level Jacksonville Center
Fri 10:35:27 AM 31.3403 -82.2917 333° Northwest 162 186 6,000  Level Jacksonville Center
Fri 10:36:27 AM 31.3781 -82.3133 334° Northwest 162 186 6,000  Level Jacksonville Center
Fri 10:37:27 AM 31.4158 -82.3375 331° Northwest 157 181 6,000  Level Jacksonville Center
Fri 10:38:27 AM 31.4514 -82.3642 327° Northwest 162 186 6,000  Level Jacksonville Center
Fri 10:39:27 AM 31.4892 -82.3908 329° Northwest 162 186 6,000  Level Jacksonville Center
Fri 10:40:27 AM 31.5289 -82.4150 333° Northwest 162 186 6,000  Level Jacksonville Center
Fri 10:41:27 AM 31.5706 -82.4389 334° Northwest 162 186 6,000  Level Jacksonville Center
Fri 10:42:27 AM 31.6064 -82.4656 328° Northwest 162 186 6,000  Level Jacksonville Center
Fri 10:43:27 AM 31.6461 -82.4922 330° Northwest 162 186 6,000  Level Jacksonville Center
Fri 10:44:27 AM 31.6836 -82.5167 331° Northwest 162 186 6,000  Level Jacksonville Center
Fri 10:45:27 AM 31.7192 -82.5433 327° Northwest 162 186 6,000  Level Jacksonville Center
Fri 10:46:27 AM 31.7611 -82.5675 334° Northwest 162 186 6,000  Level Jacksonville Center
Fri 10:47:27 AM 31.7967 -82.5919 330° Northwest 162 186 6,000  Level Jacksonville Center
Fri 10:48:27 AM 31.8342 -82.6161 331° Northwest 162 186 6,000  Level Jacksonville Center
Fri 10:49:27 AM 31.8719 -82.6431 329° Northwest 162 186 6,000  Level Jacksonville Center
Fri 10:50:27 AM 31.9094 -82.6675 331° Northwest 162 186 6,000  Level Jacksonville Center
Fri 10:51:27 AM 31.9450 -82.6942 328° Northwest 162 186 6,000  Level Jacksonville Center
Fri 10:52:27 AM 31.9869 -82.7211 331° Northwest 162 186 6,000  Level Jacksonville Center
Fri 10:53:27 AM 32.0225 -82.7456 330° Northwest 162 186 6,000  Level Jacksonville Center
Fri 10:54:27 AM 32.0622 -82.7725 330° Northwest 162 186 6,000  Level Jacksonville Center
Fri 10:55:27 AM 32.1017 -82.7969 332° Northwest 162 186 6,000  Level Jacksonville Center
Fri 10:56:27 AM 32.1394 -82.8214 331° Northwest 162 186 6,000  Level Jacksonville Center
Fri 10:58:37 AM 32.2333 -82.8833 331° Northwest 160 184 6,000  Level Atlanta TRACON
Fri 10:59:31 AM 32.2667 -82.9000 337° Northwest 160 184 6,000  Level Atlanta TRACON
Fri 11:00:31 AM 32.3000 -82.9333 320° Northwest 159 183 6,000  Level Atlanta TRACON
Fri 11:01:31 AM 32.3333 -82.9500 337° Northwest 159 183 6,000  Level Atlanta TRACON
Fri 11:02:25 AM 32.3667 -82.9833 320° Northwest 159 183 6,000  Level Atlanta TRACON
Fri 11:03:31 AM 32.4167 -83.0000 344° North 158 182 6,000  Level Atlanta TRACON
Fri 11:04:25 AM 32.4500 -83.0333 320° Northwest 154 177 6,000  Level Atlanta TRACON
Fri 11:05:25 AM 32.4833 -83.0500 337° Northwest 158 182 6,000  Level Atlanta TRACON
Fri 11:06:19 AM 32.5167 -83.0833 320° Northwest 159 183 6,000  Level Atlanta TRACON
Fri 11:07:19 AM 32.5500 -83.1000 337° Northwest 159 183 6,000  Level Atlanta TRACON
Fri 11:08:19 AM 32.6000 -83.1333 331° Northwest 158 182 6,000  Level Atlanta TRACON
Fri 11:09:19 AM 32.6333 -83.1500 337° Northwest 156 180 6,000  Level Atlanta TRACON
Fri 11:10:19 AM 32.6667 -83.1833 320° Northwest 155 178 6,000  Level Atlanta TRACON
Fri 11:11:19 AM 32.7000 -83.2000 337° Northwest 155 178 6,000  Level Atlanta TRACON
Fri 11:12:19 AM 32.7500 -83.2333 331° Northwest 155 178 6,000  Level Atlanta TRACON
Fri 11:13:19 AM 32.7833 -83.2667 320° Northwest 156 180 6,000  Level Atlanta TRACON
Fri 11:14:13 AM 32.8167 -83.2833 337° Northwest 155 178 6,000  Level Atlanta TRACON
Fri 11:15:13 AM 32.8500 -83.3000 337° Northwest 158 182 6,000  Level Atlanta TRACON
Fri 11:16:13 AM 32.8833 -83.3333 320° Northwest 157 181 6,000  Level Atlanta TRACON
Fri 11:17:13 AM 32.9333 -83.3667 331° Northwest 154 177 6,000  Level Atlanta TRACON
Fri 11:18:13 AM 32.9667 -83.3833 337° Northwest 157 181 6,000  Level Atlanta TRACON
Fri 11:19:13 AM 33.0000 -83.4167 320° Northwest 154 177 6,000  Level Atlanta TRACON
Fri 11:20:13 AM 33.0333 -83.4333 337° Northwest 154 177 6,000  Level Atlanta TRACON
Fri 11:21:07 AM 33.0667 -83.4667 320° Northwest 156 180 6,000  Level Atlanta TRACON
Fri 11:22:01 AM 33.1000 -83.4833 337° Northwest 153 176 6,000  Level Atlanta TRACON
Fri 11:23:01 AM 33.1500 -83.5167 331° Northwest 154 177 6,000  Level Atlanta TRACON
Fri 11:24:01 AM 33.1833 -83.5333 337° Northwest 156 180 6,000  Level Atlanta TRACON
Fri 11:25:07 AM 33.2167 -83.5667 320° Northwest 157 181 6,000  Level Atlanta TRACON
Fri 11:26:07 AM 33.2667 -83.5833 344° North 152 175 6,000  Level Atlanta TRACON
Fri 11:27:01 AM 33.3000 -83.6167 320° Northwest 159 183 6,000  Level Atlanta TRACON
Fri 11:28:07 AM 33.3333 -83.6333 337° Northwest 157 181 6,000  Level Atlanta TRACON
Fri 11:29:01 AM 33.3667 -83.6667 320° Northwest 157 181 6,000 -53 Level Atlanta TRACON
Fri 11:30:01 AM 33.4000 -83.6833 337° Northwest 159 183 5,900 -350 Descending Atlanta TRACON
Fri 11:31:01 AM 33.4500 -83.7167 331° Northwest 164 189 5,300 -714 Descending Atlanta TRACON
Fri 11:32:07 AM 33.4833 -83.7500 320° Northwest 161 185 4,400 -900 Descending Atlanta TRACON
Fri 11:33:01 AM 33.5167 -83.7667 337° Northwest 157 181 3,500 -1,000 Descending Atlanta TRACON

Login

Don't have an account? Register now (free) for customized features, flight alerts, and more!